Time;durP1;ratioP1;P1;durP2;ratioP2;P2;SDS_P1;SDS_P2;PMS_P1;PMS_P2;Temp;Humidity;BMP_temperature;BMP_pressure;BME280_temperature;BME280_humidity;BME280_pressure;Samples;Min_cycle;Max_cycle;Signal;HPM_P1;HPM_P2
2021/12/19 00:02:18;;;;;;;;;;;;;;;4.64;100.00;103704.84;5067442;28;19921;-78
2021/12/19 00:10:12;;;;;;;;;;;;;;;4.60;100.00;103692.28;5061666;28;20351;-79
2021/12/19 00:12:38;;;;;;;;;;;;;;;4.59;100.00;103684.28;5064966;28;19920;-78
2021/12/19 00:15:03;;;;;;;;;;;;;;;4.63;100.00;103687.38;5074727;28;19920;-78
2021/12/19 00:17:30;;;;;;;;;;;;;;;4.66;100.00;103679.88;5070952;28;20340;-78
2021/12/19 00:19:56;;;;;;;;;;;;;;;4.67;100.00;103679.09;5065604;28;19920;-78
2021/12/19 00:22:21;;;;;;;;;;;;;;;4.66;100.00;103672.03;5067384;28;19921;-78
2021/12/19 00:24:46;;;;;;;;;;;;;;;4.65;100.00;103670.19;5063316;28;19929;-78
2021/12/19 00:27:11;;;;;;;;;;;;;;;4.65;100.00;103664.94;5063487;28;19928;-78
2021/12/19 00:29:37;;;;;;;;;;;;;;;4.68;100.00;103665.28;5073082;28;20410;-77
2021/12/19 00:32:02;;;;;;;;;;;;;;;4.67;100.00;103663.41;5057121;28;20000;-78
2021/12/19 00:34:27;;;;;;;;;;;;;;;4.65;100.00;103667.56;5055258;28;19920;-78
2021/12/19 00:36:52;;;;;;;;;;;;;;;4.74;100.00;103669.28;5058853;28;19934;-78
2021/12/19 00:39:19;;;;;;;;;;;;;;;4.70;100.00;103665.44;5074490;28;19920;-78
2021/12/19 00:41:44;;;;;;;;;;;;;;;4.64;100.00;103665.72;5069350;28;19921;-78
2021/12/19 00:44:11;;;;;;;;;;;;;;;4.66;100.00;103660.66;5054968;28;20023;-78
2021/12/19 00:46:44;;;;;;;;;;;;;;;4.66;100.00;103660.66;5063890;28;19920;-78
2021/12/19 00:49:20;;;;;;;;;;;;;;;4.67;100.00;103663.41;5066057;28;19929;-78
2021/12/19 00:51:46;;;;;;;;;;;;;;;4.67;100.00;103649.44;5067823;28;19978;-78
2021/12/19 00:54:12;;;;;;;;;;;;;;;4.68;100.00;103639.16;5066587;28;20352;-78
2021/12/19 00:56:38;;;;;;;;;;;;;;;4.64;100.00;103639.59;5068299;28;19928;-78
2021/12/19 00:59:04;;;;;;;;;;;;;;;4.68;100.00;103639.16;5058365;28;20280;-78
2021/12/19 01:01:30;;;;;;;;;;;;;;;4.71;100.00;103637.63;5059036;28;19928;-78
2021/12/19 01:03:55;;;;;;;;;;;;;;;4.69;100.00;103640.09;5069056;28;19969;-78
2021/12/19 01:06:20;;;;;;;;;;;;;;;4.68;100.00;103644.41;5056940;28;19921;-78
2021/12/19 01:08:47;;;;;;;;;;;;;;;4.71;100.00;103641.19;5054455;28;19956;-78
2021/12/19 01:11:12;;;;;;;;;;;;;;;4.65;100.00;103638.84;5064147;28;20011;-79
2021/12/19 01:13:39;;;;;;;;;;;;;;;4.67;100.00;103646.84;5054202;28;19975;-78
2021/12/19 01:16:04;;;;;;;;;;;;;;;4.70;100.00;103636.72;5054882;28;19955;-78
2021/12/19 01:18:31;;;;;;;;;;;;;;;4.71;100.00;103632.41;5067778;28;19928;-78
2021/12/19 01:20:57;;;;;;;;;;;;;;;4.77;100.00;103626.16;5073356;28;19920;-78
2021/12/19 01:23:22;;;;;;;;;;;;;;;4.79;100.00;103621.09;5061722;28;20353;-79
2021/12/19 01:25:48;;;;;;;;;;;;;;;4.83;100.00;103623.25;5062395;28;19920;-78
2021/12/19 01:28:18;;;;;;;;;;;;;;;4.88;100.00;103627.28;5060729;28;19928;-77
2021/12/19 01:30:46;;;;;;;;;;;;;;;4.87;100.00;103617.59;5073340;28;20009;-78
2021/12/19 01:33:11;;;;;;;;;;;;;;;4.87;100.00;103619.28;5061392;28;19928;-78
2021/12/19 01:35:36;;;;;;;;;;;;;;;4.92;100.00;103625.91;5056219;28;19921;-78
2021/12/19 01:38:02;;;;;;;;;;;;;;;4.91;100.00;103619.78;5067047;28;19970;-78
2021/12/19 01:40:28;;;;;;;;;;;;;;;4.96;100.00;103613.31;5072450;28;19946;-78
2021/12/19 01:42:54;;;;;;;;;;;;;;;4.94;100.00;103620.09;5057720;28;19924;-78
2021/12/19 01:45:31;;;;;;;;;;;;;;;4.98;100.00;103608.25;5059371;28;19924;-79
2021/12/19 01:48:07;;;;;;;;;;;;;;;5.01;100.00;103608.56;5073266;28;20301;-78
2021/12/19 01:50:33;;;;;;;;;;;;;;;5.00;100.00;103610.28;5070218;28;20003;-78
2021/12/19 01:52:59;;;;;;;;;;;;;;;4.99;100.00;103605.81;5074578;28;19927;-78
2021/12/19 01:55:24;;;;;;;;;;;;;;;5.02;100.00;103605.22;5071221;28;20393;-78
2021/12/19 01:57:55;;;;;;;;;;;;;;;5.00;100.00;103597.22;5058392;28;19920;-78
2021/12/19 02:00:25;;;;;;;;;;;;;;;5.04;100.00;103598.44;5060959;28;20007;-78
2021/12/19 02:02:51;;;;;;;;;;;;;;;5.01;100.00;103599.03;5068724;28;19928;-78
2021/12/19 02:05:17;;;;;;;;;;;;;;;5.01;100.00;103601.66;5069615;28;19925;-78
2021/12/19 02:07:48;;;;;;;;;;;;;;;5.06;100.00;103602.13;5053508;28;20276;-79
2021/12/19 02:10:20;;;;;;;;;;;;;;;5.04;100.00;103607.19;5065469;28;19924;-79
2021/12/19 02:12:46;;;;;;;;;;;;;;;4.99;100.00;103603.19;5061439;28;19920;-78
2021/12/19 02:15:16;;;;;;;;;;;;;;;5.09;100.00;103601.53;5068378;28;19924;-79
2021/12/19 02:17:43;;;;;;;;;;;;;;;5.05;100.00;103595.06;5064325;28;19920;-79
2021/12/19 02:20:09;;;;;;;;;;;;;;;5.10;100.00;103591.22;5064405;28;19920;-79
2021/12/19 02:22:35;;;;;;;;;;;;;;;5.15;100.00;103592.63;5071909;28;19920;-79
2021/12/19 02:25:00;;;;;;;;;;;;;;;5.10;100.00;103588.63;5054685;28;20015;-79
2021/12/19 02:27:28;;;;;;;;;;;;;;;5.08;100.00;103590.16;5069647;28;19940;-77
2021/12/19 02:29:54;;;;;;;;;;;;;;;5.13;100.00;103582.78;5071108;28;19924;-78
2021/12/19 02:32:19;;;;;;;;;;;;;;;5.13;100.00;103574.97;5073219;28;19925;-78
2021/12/19 02:34:47;;;;;;;;;;;;;;;5.14;100.00;103569.91;5054121;28;19921;-77
2021/12/19 02:50:35;;;;;;;;;;;;;;;5.31;100.00;103565.44;5067946;28;19947;-78
2021/12/19 02:53:00;;;;;;;;;;;;;;;5.27;100.00;103558.97;5069674;28;20272;-78
2021/12/19 02:55:25;;;;;;;;;;;;;;;5.30;100.00;103551.47;5070342;28;19920;-78
2021/12/19 02:57:55;;;;;;;;;;;;;;;5.27;100.00;103551.16;5071512;28;19927;-78
2021/12/19 03:00:26;;;;;;;;;;;;;;;5.24;100.00;103548.22;5065974;28;19946;-78
2021/12/19 03:02:51;;;;;;;;;;;;;;;5.27;100.00;103545.91;5065528;28;19959;-78
2021/12/19 03:05:17;;;;;;;;;;;;;;;5.28;100.00;103534.69;5058230;28;19962;-78
2021/12/19 03:07:44;;;;;;;;;;;;;;;5.38;100.00;103536.56;5071349;28;19920;-77
2021/12/19 03:13:08;;;;;;;;;;;;;;;5.43;100.00;103510.88;5060517;28;19928;-78
2021/12/19 03:18:18;;;;;;;;;;;;;;;5.49;100.00;103511.47;5059059;28;20308;-78
2021/12/19 03:20:44;;;;;;;;;;;;;;;5.51;100.00;103510.84;5071745;28;19920;-78
2021/12/19 03:23:11;;;;;;;;;;;;;;;5.50;100.00;103503.78;5064151;28;19939;-78
2021/12/19 03:25:36;;;;;;;;;;;;;;;5.51;100.00;103495.16;5060950;28;20387;-78
2021/12/19 03:28:04;;;;;;;;;;;;;;;5.51;100.00;103489.94;5068069;28;19920;-78
2021/12/19 03:30:29;;;;;;;;;;;;;;;5.51;100.00;103486.41;5064516;28;19921;-77
2021/12/19 03:32:55;;;;;;;;;;;;;;;5.53;100.00;103488.41;5060861;28;20254;-78
2021/12/19 03:35:20;;;;;;;;;;;;;;;5.50;100.00;103476.72;5070227;28;20022;-78
2021/12/19 03:37:50;;;;;;;;;;;;;;;5.53;100.00;103475.34;5065929;28;19920;-78
2021/12/19 03:40:22;;;;;;;;;;;;;;;5.56;100.00;103475.66;5072543;28;19920;-79
2021/12/19 03:42:48;;;;;;;;;;;;;;;5.60;100.00;103470.72;5068357;28;19925;-77
2021/12/19 03:45:15;;;;;;;;;;;;;;;5.58;100.00;103468.88;5056158;28;19925;-77
2021/12/19 03:47:45;;;;;;;;;;;;;;;5.56;100.00;103465.19;5058631;28;19921;-78
2021/12/19 03:50:12;;;;;;;;;;;;;;;5.53;100.00;103471.78;5070043;28;19924;-78
2021/12/19 03:52:37;;;;;;;;;;;;;;;5.53;100.00;103470.13;5074639;28;19924;-78
2021/12/19 03:55:03;;;;;;;;;;;;;;;5.60;100.00;103468.13;5060967;28;20345;-77
2021/12/19 03:57:30;;;;;;;;;;;;;;;5.59;100.00;103469.78;5063807;28;19967;-77
2021/12/19 03:59:55;;;;;;;;;;;;;;;5.61;100.00;103468.25;5056928;28;19920;-78
2021/12/19 04:02:28;;;;;;;;;;;;;;;5.62;100.00;103466.56;5074689;28;20008;-77
2021/12/19 04:04:54;;;;;;;;;;;;;;;5.66;100.00;103463.47;5061112;28;19920;-78
2021/12/19 04:07:23;;;;;;;;;;;;;;;5.73;100.00;103461.63;5062680;28;19927;-78
2021/12/19 04:09:49;;;;;;;;;;;;;;;5.73;100.00;103452.81;5056156;28;20384;-78
2021/12/19 04:12:15;;;;;;;;;;;;;;;5.71;100.00;103452.69;5074944;28;19920;-78
2021/12/19 04:14:41;;;;;;;;;;;;;;;5.72;100.00;103441.47;5075881;28;19973;-78
2021/12/19 04:17:06;;;;;;;;;;;;;;;5.75;100.00;103441.75;5076031;28;19916;-78
2021/12/19 04:19:32;;;;;;;;;;;;;;;5.76;100.00;103434.81;5060240;28;19928;-79
2021/12/19 04:21:58;;;;;;;;;;;;;;;5.75;100.00;103430.41;5058292;28;19921;-79
2021/12/19 04:24:23;;;;;;;;;;;;;;;5.75;100.00;103422.53;5055921;28;20375;-78
2021/12/19 04:26:48;;;;;;;;;;;;;;;5.73;100.00;103431.91;5061270;28;20395;-77
2021/12/19 04:29:15;;;;;;;;;;;;;;;5.73;100.00;103431.91;5056319;28;20603;-78
2021/12/19 04:31:40;;;;;;;;;;;;;;;5.74;100.00;103418.09;5055175;28;19950;-78
2021/12/19 04:34:06;;;;;;;;;;;;;;;5.79;100.00;103424.66;5061664;28;20230;-78
2021/12/19 04:36:36;;;;;;;;;;;;;;;5.78;100.00;103421.91;5063391;28;19932;-78
2021/12/19 04:57:46;;;;;;;;;;;;;;;5.92;100.00;103401.53;5059674;28;20788;-78
2021/12/19 05:00:16;;;;;;;;;;;;;;;5.87;100.00;103404.47;5073101;28;19927;-78
2021/12/19 05:02:48;;;;;;;;;;;;;;;5.89;100.00;103405.56;5077371;28;19948;-78
2021/12/19 05:05:31;;;;;;;;;;;;;;;5.81;100.00;103402.22;5065735;28;20665;-78
2021/12/19 05:16:03;;;;;;;;;;;;;;;5.75;100.00;103407.78;5076938;28;19928;-78
2021/12/19 05:18:34;;;;;;;;;;;;;;;5.77;100.00;103404.41;5064324;28;19920;-78
2021/12/19 05:21:09;;;;;;;;;;;;;;;5.78;100.00;103420.22;5078135;28;19920;-78
2021/12/19 05:26:12;;;;;;;;;;;;;;;5.81;100.00;103409.13;5077993;28;19997;-78
2021/12/19 05:28:41;;;;;;;;;;;;;;;5.86;100.00;103403.56;5059659;28;20312;-78
2021/12/19 05:31:06;;;;;;;;;;;;;;;5.88;100.00;103408.94;5060492;28;20408;-78
2021/12/19 05:33:32;;;;;;;;;;;;;;;5.86;100.00;103408.81;5067042;28;19948;-78
2021/12/19 05:36:17;;;;;;;;;;;;;;;5.93;100.00;103405.06;5068851;28;19920;-78
2021/12/19 05:46:56;;;;;;;;;;;;;;;5.89;100.00;103402.97;5083880;28;20292;-78
2021/12/19 05:49:21;;;;;;;;;;;;;;;5.92;100.00;103404.16;5066701;28;20276;-78
2021/12/19 05:51:47;;;;;;;;;;;;;;;5.88;100.00;103404.63;5077684;28;19923;-78
2021/12/19 05:54:12;;;;;;;;;;;;;;;5.87;100.00;103407.09;5063846;28;19952;-78
2021/12/19 05:56:38;;;;;;;;;;;;;;;5.84;100.00;103397.28;5059879;28;19916;-78
2021/12/19 05:59:03;;;;;;;;;;;;;;;5.84;100.00;103391.13;5056540;28;19995;-78
2021/12/19 06:01:29;;;;;;;;;;;;;;;5.82;100.00;103387.44;5062607;28;19926;-78
2021/12/19 06:03:54;;;;;;;;;;;;;;;5.88;100.00;103388.03;5071438;28;19924;-78
2021/12/19 06:06:19;;;;;;;;;;;;;;;5.82;100.00;103383.13;5060231;28;19928;-77
2021/12/19 06:08:45;;;;;;;;;;;;;;;5.84;100.00;103381.59;5060964;28;19920;-78
2021/12/19 06:11:10;;;;;;;;;;;;;;;5.84;100.00;103373.75;5067906;28;20372;-78
2021/12/19 06:13:37;;;;;;;;;;;;;;;5.79;100.00;103387.16;5066836;28;19920;-79
2021/12/19 06:16:03;;;;;;;;;;;;;;;5.79;100.00;103369.75;5067381;28;19925;-78
2021/12/19 06:18:30;;;;;;;;;;;;;;;5.82;100.00;103369.13;5057875;28;20361;-78
2021/12/19 06:20:55;;;;;;;;;;;;;;;5.81;100.00;103373.47;5056761;28;19966;-78
2021/12/19 06:23:21;;;;;;;;;;;;;;;5.83;100.00;103376.22;5058772;28;19924;-78
2021/12/19 06:25:46;;;;;;;;;;;;;;;5.79;100.00;103363.63;5066401;28;20368;-78
2021/12/19 06:28:14;;;;;;;;;;;;;;;5.82;100.00;103369.13;5058464;28;20357;-78
2021/12/19 06:30:40;;;;;;;;;;;;;;;5.79;100.00;103356.69;5056473;28;20281;-78
2021/12/19 06:33:05;;;;;;;;;;;;;;;5.82;100.00;103358.69;5072996;28;19920;-78
2021/12/19 06:35:31;;;;;;;;;;;;;;;5.82;100.00;103356.06;5073110;28;19940;-79
2021/12/19 06:37:57;;;;;;;;;;;;;;;5.79;100.00;103355.78;5057446;28;19920;-78
2021/12/19 06:40:23;;;;;;;;;;;;;;;5.81;100.00;103355.16;5094048;28;20034;-78
2021/12/19 06:42:49;;;;;;;;;;;;;;;5.81;100.00;103352.53;5074529;28;19964;-78
2021/12/19 06:45:14;;;;;;;;;;;;;;;5.80;100.00;103349.78;5070462;28;19982;-78
2021/12/19 06:47:39;;;;;;;;;;;;;;;5.84;100.00;103346.66;5067701;28;19920;-78
2021/12/19 06:50:05;;;;;;;;;;;;;;;5.83;100.00;103342.22;5073020;28;19920;-78
2021/12/19 06:52:30;;;;;;;;;;;;;;;5.82;100.00;103338.66;5064862;28;19969;-78
2021/12/19 06:54:55;;;;;;;;;;;;;;;5.81;99.48;103336.84;5061642;28;19927;-78
2021/12/19 06:57:31;;;;;;;;;;;;;;;5.85;98.80;103338.06;5072942;28;19920;-78
2021/12/19 06:59:56;;;;;;;;;;;;;;;5.84;98.14;103341.44;5074353;28;20010;-78
2021/12/19 07:02:22;;;;;;;;;;;;;;;5.80;97.92;103340.22;5063391;28;19966;-78
2021/12/19 07:04:47;;;;;;;;;;;;;;;5.81;97.42;103338.53;5068269;28;19935;-78
2021/12/19 07:07:13;;;;;;;;;;;;;;;5.80;97.03;103337.63;5056254;28;19920;-79
2021/12/19 07:09:39;;;;;;;;;;;;;;;5.82;94.97;103345.59;5075525;28;19959;-79
2021/12/19 07:12:04;;;;;;;;;;;;;;;5.83;94.46;103326.53;5071447;28;20414;-79
2021/12/19 07:14:30;;;;;;;;;;;;;;;5.87;93.60;103328.66;5061640;28;19959;-78
2021/12/19 07:16:55;;;;;;;;;;;;;;;5.85;91.36;103324.97;5056306;28;19943;-78
2021/12/19 07:19:22;;;;;;;;;;;;;;;5.85;90.62;103328.50;5086559;28;20371;-78
2021/12/19 07:21:48;;;;;;;;;;;;;;;5.87;90.09;103329.59;5075772;28;19920;-78
2021/12/19 07:24:13;;;;;;;;;;;;;;;5.82;90.00;103336.06;5060952;28;20650;-78
2021/12/19 07:26:38;;;;;;;;;;;;;;;5.74;89.83;103324.88;5057230;28;19924;-78
2021/12/19 07:29:04;;;;;;;;;;;;;;;5.70;89.85;103330.59;5066622;28;19920;-78
2021/12/19 07:31:31;;;;;;;;;;;;;;;5.61;89.99;103334.94;5056554;28;20007;-78
2021/12/19 07:33:57;;;;;;;;;;;;;;;5.59;89.76;103328.63;5066476;28;19965;-78
2021/12/19 07:36:25;;;;;;;;;;;;;;;5.57;89.63;103325.88;5072508;28;20480;-78
2021/12/19 07:39:03;;;;;;;;;;;;;;;5.59;89.43;103320.78;5059087;28;19997;-78
2021/12/19 07:41:29;;;;;;;;;;;;;;;5.56;89.24;103326.66;5058545;28;19921;-78
2021/12/19 07:43:54;;;;;;;;;;;;;;;5.60;89.09;103321.72;5066199;28;19920;-78
2021/12/19 07:46:19;;;;;;;;;;;;;;;5.57;89.00;103333.72;5064649;28;20626;-78
2021/12/19 07:48:52;;;;;;;;;;;;;;;5.58;88.69;103321.59;5074379;28;19944;-78
2021/12/19 07:51:17;;;;;;;;;;;;;;;5.64;88.30;103330.00;5071244;28;20383;-78
2021/12/19 07:53:42;;;;;;;;;;;;;;;5.65;87.90;103329.22;5063801;28;19920;-78
2021/12/19 07:56:08;;;;;;;;;;;;;;;5.60;87.84;103327.88;5067937;28;19987;-78
2021/12/19 07:58:39;;;;;;;;;;;;;;;5.64;87.54;103330.00;5059253;28;19943;-79
2021/12/19 08:01:04;;;;;;;;;;;;;;;5.67;87.30;103318.91;5072814;28;19921;-78
2021/12/19 08:03:30;;;;;;;;;;;;;;;5.70;86.96;103313.97;5055821;28;19950;-79
2021/12/19 08:05:55;;;;;;;;;;;;;;;5.69;86.94;103320.00;5073396;28;19916;-79
2021/12/19 08:08:28;;;;;;;;;;;;;;;5.71;86.61;103321.06;5077182;28;19943;-80
2021/12/19 08:13:37;;;;;;;;;;;;;;;5.71;86.15;103311.50;5081415;28;20375;-80
2021/12/19 08:16:03;;;;;;;;;;;;;;;5.77;85.79;103315.50;5073742;28;19917;-79
2021/12/19 08:18:28;;;;;;;;;;;;;;;5.76;85.65;103311.94;5085197;28;19920;-79
2021/12/19 08:20:54;;;;;;;;;;;;;;;5.79;85.36;103313.94;5095018;28;19920;-79
2021/12/19 08:23:19;;;;;;;;;;;;;;;5.84;84.94;103304.81;5063498;28;20246;-79
2021/12/19 08:25:44;;;;;;;;;;;;;;;5.90;84.66;103298.50;5062123;28;20010;-79
2021/12/19 08:28:10;;;;;;;;;;;;;;;5.91;84.50;103305.53;5085571;28;19924;-80
2021/12/19 08:30:35;;;;;;;;;;;;;;;5.93;84.43;103296.16;5086691;28;19924;-79
2021/12/19 08:33:00;;;;;;;;;;;;;;;5.91;84.44;103289.84;5077201;28;20124;-79
2021/12/19 08:35:25;;;;;;;;;;;;;;;5.98;84.23;103296.63;5077217;28;20329;-79
2021/12/19 08:37:58;;;;;;;;;;;;;;;5.97;84.17;103300.03;5065371;28;20011;-79
2021/12/19 08:40:24;;;;;;;;;;;;;;;5.98;84.13;103300.94;5059604;28;19920;-79
2021/12/19 08:42:50;;;;;;;;;;;;;;;5.99;84.08;103298.47;5064796;28;19935;-80
2021/12/19 08:45:16;;;;;;;;;;;;;;;5.99;84.17;103302.78;5058312;28;20238;-80
2021/12/19 08:47:41;;;;;;;;;;;;;;;6.01;84.21;103304.78;5078432;28;19933;-79
2021/12/19 08:50:07;;;;;;;;;;;;;;;6.01;84.36;103302.16;5097665;28;19924;-78
2021/12/19 08:52:33;;;;;;;;;;;;;;;6.03;84.36;103300.59;5097483;28;20075;-78
2021/12/19 08:54:59;;;;;;;;;;;;;;;6.06;84.38;103295.66;5097458;28;20360;-78
2021/12/19 08:57:26;;;;;;;;;;;;;;;6.06;84.51;103293.03;5097059;28;19924;-79
2021/12/19 08:59:52;;;;;;;;;;;;;;;6.00;84.87;103297.69;5083545;28;19921;-78
2021/12/19 09:02:17;;;;;;;;;;;;;;;6.00;85.15;103294.16;5074239;28;19920;-80
2021/12/19 09:04:42;;;;;;;;;;;;;;;6.02;85.28;103285.66;5073369;28;19923;-78
2021/12/19 09:07:08;;;;;;;;;;;;;;;6.10;85.61;103291.63;5074411;28;20066;-79
2021/12/19 09:09:34;;;;;;;;;;;;;;;6.10;86.18;103302.06;5073991;28;19920;-79
2021/12/19 09:11:59;;;;;;;;;;;;;;;6.18;86.42;103290.63;5073777;28;20011;-78
2021/12/19 09:14:24;;;;;;;;;;;;;;;6.27;86.64;103287.94;5074062;28;19927;-78
2021/12/19 09:16:49;;;;;;;;;;;;;;;6.30;87.08;103298.69;5076079;28;19999;-79
2021/12/19 09:19:15;;;;;;;;;;;;;;;6.31;87.60;103300.53;5061539;28;19921;-79
2021/12/19 09:21:41;;;;;;;;;;;;;;;6.29;88.23;103295.19;5058591;28;20348;-79
2021/12/19 09:24:06;;;;;;;;;;;;;;;6.28;88.95;103300.25;5095210;28;20264;-79
2021/12/19 09:26:31;;;;;;;;;;;;;;;6.25;89.55;103290.41;5080079;28;20341;-79
2021/12/19 09:28:58;;;;;;;;;;;;;;;6.22;90.29;103295.38;5074052;28;20344;-79
2021/12/19 09:31:23;;;;;;;;;;;;;;;6.23;91.34;103296.28;5063437;28;19917;-79
2021/12/19 09:33:48;;;;;;;;;;;;;;;6.32;92.45;103291.00;5067180;28;19927;-78
2021/12/19 09:36:14;;;;;;;;;;;;;;;6.41;93.83;103284.00;5074563;28;19943;-78
2021/12/19 09:38:41;;;;;;;;;;;;;;;6.41;96.42;103286.59;5073961;28;20094;-78
2021/12/19 09:41:13;;;;;;;;;;;;;;;6.32;100.00;103278.81;5074133;28;20349;-79
2021/12/19 09:43:42;;;;;;;;;;;;;;;6.43;100.00;103279.81;5067395;28;20004;-78
2021/12/19 09:46:20;;;;;;;;;;;;;;;6.47;100.00;103274.09;5067786;28;19920;-78
2021/12/19 09:48:48;;;;;;;;;;;;;;;6.45;100.00;103280.88;5073735;28;19921;-78
2021/12/19 09:51:15;;;;;;;;;;;;;;;6.49;100.00;103284.69;5073422;28;19962;-78
2021/12/19 09:53:41;;;;;;;;;;;;;;;6.50;100.00;103279.59;5073518;28;19924;-78
2021/12/19 09:56:06;;;;;;;;;;;;;;;6.44;100.00;103276.41;5073887;28;20353;-79
2021/12/19 09:58:32;;;;;;;;;;;;;;;6.45;100.00;103287.03;5073210;28;19928;-79
2021/12/19 10:00:58;;;;;;;;;;;;;;;6.39;100.00;103276.00;5073370;28;19970;-79
2021/12/19 10:03:24;;;;;;;;;;;;;;;6.43;100.00;103287.66;5049705;28;20431;-79
2021/12/19 10:05:49;;;;;;;;;;;;;;;6.51;100.00;103281.44;5047062;28;19920;-79
2021/12/19 10:08:23;;;;;;;;;;;;;;;6.52;100.00;103272.78;5057109;28;19920;-79
2021/12/19 10:10:58;;;;;;;;;;;;;;;6.47;100.00;103285.47;5056108;28;19994;-79
2021/12/19 10:13:31;;;;;;;;;;;;;;;6.58;100.00;103272.44;5056077;28;19916;-79
2021/12/19 10:15:56;;;;;;;;;;;;;;;6.47;100.00;103279.31;5055190;28;19959;-77
2021/12/19 10:18:26;;;;;;;;;;;;;;;6.44;100.00;103265.94;5054779;28;19916;-78
2021/12/19 10:20:51;;;;;;;;;;;;;;;6.59;100.00;103255.97;5036395;28;19921;-78
2021/12/19 10:23:18;;;;;;;;;;;;;;;6.55;100.00;103257.38;5037007;28;19985;-78
2021/12/19 10:25:53;;;;;;;;;;;;;;;6.67;100.00;103251.44;5051925;28;20261;-78
2021/12/19 10:28:18;;;;;;;;;;;;;;;6.61;100.00;103251.78;5053547;28;19927;-79
2021/12/19 10:30:46;;;;;;;;;;;;;;;6.62;100.00;103251.00;5034952;28;19921;-78
2021/12/19 10:33:24;;;;;;;;;;;;;;;6.64;100.00;103252.97;5036649;28;19928;-79
2021/12/19 10:35:54;;;;;;;;;;;;;;;6.70;100.00;103247.38;5056128;28;19920;-79
2021/12/19 10:38:29;;;;;;;;;;;;;;;6.62;100.00;103243.16;5055647;28;20045;-79
2021/12/19 10:40:55;;;;;;;;;;;;;;;6.63;100.00;103237.13;5053412;28;19928;-78
2021/12/19 10:43:23;;;;;;;;;;;;;;;6.60;100.00;103235.16;5055787;28;19926;-78
2021/12/19 10:45:51;;;;;;;;;;;;;;;6.65;100.00;103223.41;5038200;28;19929;-79
2021/12/19 10:48:25;;;;;;;;;;;;;;;6.69;100.00;103219.34;5049930;28;19994;-79
2021/12/19 10:50:57;;;;;;;;;;;;;;;6.73;100.00;103221.47;5054896;28;19924;-79
2021/12/19 10:53:24;;;;;;;;;;;;;;;6.76;100.00;103221.75;5055662;28;20323;-79
2021/12/19 10:55:50;;;;;;;;;;;;;;;6.77;100.00;103207.84;5041173;28;19925;-78
2021/12/19 10:58:26;;;;;;;;;;;;;;;6.78;100.00;103198.31;5035873;28;19927;-79
2021/12/19 11:01:06;;;;;;;;;;;;;;;6.73;100.00;103191.75;5056000;28;19967;-79
2021/12/19 11:03:34;;;;;;;;;;;;;;;6.73;100.00;103184.81;5072817;28;19920;-78
2021/12/19 11:06:00;;;;;;;;;;;;;;;6.70;100.00;103178.38;5063019;28;19927;-79
2021/12/19 11:08:31;;;;;;;;;;;;;;;6.62;100.00;103180.31;5086733;28;20014;-79
2021/12/19 11:10:57;;;;;;;;;;;;;;;6.70;100.00;103171.44;5072171;28;19920;-81
2021/12/19 11:13:22;;;;;;;;;;;;;;;6.73;100.00;103161.25;5084795;28;19920;-81
2021/12/19 11:15:50;;;;;;;;;;;;;;;6.69;100.00;103156.50;5085435;28;19924;-81
2021/12/19 11:18:16;;;;;;;;;;;;;;;6.64;100.00;103147.31;5052622;28;19921;-80
2021/12/19 11:20:42;;;;;;;;;;;;;;;6.68;100.00;103149.44;5072079;28;19924;-80
2021/12/19 11:23:07;;;;;;;;;;;;;;;6.71;100.00;103133.06;5073308;28;19955;-80
2021/12/19 11:25:33;;;;;;;;;;;;;;;6.74;100.00;103130.72;5072308;28;19993;-80
2021/12/19 11:28:07;;;;;;;;;;;;;;;6.73;100.00;103129.81;5064047;28;20352;-79
2021/12/19 11:30:32;;;;;;;;;;;;;;;6.77;100.00;103129.28;5072131;28;19928;-80
2021/12/19 11:33:16;;;;;;;;;;;;;;;6.79;100.00;103114.63;5055536;28;19924;-79
2021/12/19 11:35:46;;;;;;;;;;;;;;;6.80;100.00;103107.69;5067094;28;19927;-80
2021/12/19 11:38:13;;;;;;;;;;;;;;;6.80;100.00;103105.97;5073103;28;20009;-79
2021/12/19 11:40:39;;;;;;;;;;;;;;;6.74;100.00;103105.47;5070503;28;19921;-80
2021/12/19 11:43:08;;;;;;;;;;;;;;;6.82;100.00;103091.34;5082161;28;19920;-79
2021/12/19 11:48:13;;;;;;;;;;;;;;;6.71;100.00;103092.13;5068212;28;19959;-80
2021/12/19 11:50:46;;;;;;;;;;;;;;;6.64;100.00;103089.72;5075885;28;20014;-80
2021/12/19 11:53:15;;;;;;;;;;;;;;;6.67;100.00;103090.00;5076043;28;19920;-80
2021/12/19 11:55:43;;;;;;;;;;;;;;;6.75;100.00;103081.09;5066321;28;20303;-80
2021/12/19 11:58:12;;;;;;;;;;;;;;;6.80;100.00;103082.41;5076731;28;19924;-80
2021/12/19 12:00:40;;;;;;;;;;;;;;;6.78;100.00;103068.28;5075958;28;19936;-80
2021/12/19 12:03:12;;;;;;;;;;;;;;;6.81;100.00;103070.25;5076453;28;19928;-80
2021/12/19 12:05:41;;;;;;;;;;;;;;;6.80;100.00;103063.16;5075534;28;19920;-80
2021/12/19 12:08:08;;;;;;;;;;;;;;;6.77;100.00;103061.19;5078904;28;19920;-80
2021/12/19 12:11:03;;;;;;;;;;;;;;;6.79;100.00;103069.19;5076219;28;19921;-80
2021/12/19 12:13:29;;;;;;;;;;;;;;;6.83;100.00;103059.09;5059678;28;19921;-79
2021/12/19 12:16:07;;;;;;;;;;;;;;;6.78;100.00;103057.81;5061955;28;20031;-79
2021/12/19 12:18:36;;;;;;;;;;;;;;;6.85;100.00;103060.94;5060619;28;20291;-80
2021/12/19 12:21:32;;;;;;;;;;;;;;;6.85;100.00;103066.19;5055319;28;19927;-80
2021/12/19 12:23:59;;;;;;;;;;;;;;;6.96;100.00;103057.53;5056015;28;19920;-80
2021/12/19 12:26:28;;;;;;;;;;;;;;;6.99;100.00;103063.03;5055284;28;19971;-80
2021/12/19 12:28:56;;;;;;;;;;;;;;;6.99;100.00;103066.59;5057648;28;19927;-80
2021/12/19 12:31:23;;;;;;;;;;;;;;;6.96;100.00;103068.03;5068894;28;19928;-79
2021/12/19 12:33:49;;;;;;;;;;;;;;;6.86;100.00;103071.56;5076194;28;19956;-80
2021/12/19 12:36:15;;;;;;;;;;;;;;;6.75;100.00;103070.63;5075040;28;19935;-79
2021/12/19 12:38:46;;;;;;;;;;;;;;;6.77;100.00;103082.13;5074844;28;20023;-80
2021/12/19 12:41:26;;;;;;;;;;;;;;;6.65;100.00;103074.16;5075522;28;19921;-79
2021/12/19 12:43:51;;;;;;;;;;;;;;;6.64;100.00;103084.50;5075194;28;19975;-79
2021/12/19 12:46:18;;;;;;;;;;;;;;;6.59;100.00;103085.81;5075608;28;19928;-79
2021/12/19 12:48:55;;;;;;;;;;;;;;;6.56;100.00;103094.28;5074948;28;20061;-80
2021/12/19 12:51:29;;;;;;;;;;;;;;;6.45;100.00;103097.66;5068114;28;19924;-78
2021/12/19 12:53:56;;;;;;;;;;;;;;;6.45;100.00;103103.81;5086915;28;20007;-80
2021/12/19 12:56:23;;;;;;;;;;;;;;;6.41;100.00;103106.91;5094959;28;20356;-80
2021/12/19 12:58:53;;;;;;;;;;;;;;;6.35;100.00;103116.84;5075970;28;19935;-78
2021/12/19 13:01:26;;;;;;;;;;;;;;;6.34;100.00;103115.03;5074857;28;20364;-78
2021/12/19 13:03:56;;;;;;;;;;;;;;;6.25;100.00;103114.22;5073846;28;20018;-79
2021/12/19 13:06:37;;;;;;;;;;;;;;;6.20;100.00;103112.84;5074462;28;19951;-78
2021/12/19 13:09:15;;;;;;;;;;;;;;;6.23;100.00;103115.75;5073663;28;19960;-78
2021/12/19 13:11:41;;;;;;;;;;;;;;;6.23;100.00;103118.34;5074363;28;19932;-77
2021/12/19 13:14:10;;;;;;;;;;;;;;;6.26;100.00;103116.97;5077889;28;19921;-77
2021/12/19 13:16:47;;;;;;;;;;;;;;;6.26;100.00;103116.97;5073844;28;19974;-78
2021/12/19 13:19:31;;;;;;;;;;;;;;;6.32;100.00;103113.94;5073934;28;19920;-80
2021/12/19 13:21:57;;;;;;;;;;;;;;;6.28;100.00;103120.63;5074017;28;19960;-79
2021/12/19 13:24:24;;;;;;;;;;;;;;;6.22;100.00;103113.94;5071422;28;19959;-79
2021/12/19 13:27:01;;;;;;;;;;;;;;;6.28;100.00;103114.47;5071593;28;20094;-79
2021/12/19 13:29:30;;;;;;;;;;;;;;;6.34;100.00;103115.03;5071644;28;20144;-79
2021/12/19 13:32:19;;;;;;;;;;;;;;;6.34;100.00;103116.72;5071289;28;19921;-79
2021/12/19 13:34:45;;;;;;;;;;;;;;;6.35;100.00;103124.69;5058312;28;19943;-79
2021/12/19 13:37:10;;;;;;;;;;;;;;;6.40;100.00;103120.81;5072421;28;20349;-79
2021/12/19 13:39:35;;;;;;;;;;;;;;;6.39;100.00;103131.16;5054818;28;20366;-80
2021/12/19 13:42:11;;;;;;;;;;;;;;;6.42;100.00;103134.94;5072050;28;20015;-80
2021/12/19 13:44:36;;;;;;;;;;;;;;;6.42;100.00;103134.94;5071915;28;20378;-79
2021/12/19 13:47:22;;;;;;;;;;;;;;;6.40;100.00;103136.50;5074108;28;19920;-80
2021/12/19 13:49:47;;;;;;;;;;;;;;;6.40;100.00;103140.81;5078037;28;19923;-81